createdAt,value
2022-11-07T00:02:12.171Z,12.02
2022-11-07T00:04:40.651Z,12.04
2022-11-07T00:07:10.689Z,12.07
2022-11-07T00:09:39.528Z,11.98
2022-11-07T00:12:08.400Z,12.02
2022-11-07T00:14:36.955Z,11.84
2022-11-07T00:17:05.345Z,11.86
2022-11-07T00:19:33.615Z,11.98
2022-11-07T00:22:01.846Z,11.99
2022-11-07T00:24:31.585Z,11.95
2022-11-07T00:26:59.809Z,11.96
2022-11-07T00:29:27.958Z,11.93
2022-11-07T00:31:56.241Z,11.97
2022-11-07T00:34:24.317Z,11.96
2022-11-07T00:36:52.498Z,11.98
2022-11-07T00:39:20.646Z,11.92
2022-11-07T00:41:50.563Z,11.96
2022-11-07T00:44:18.889Z,11.96
2022-11-07T00:46:47.214Z,11.92
2022-11-07T00:49:15.258Z,11.98
2022-11-07T00:51:43.674Z,11.98
2022-11-07T00:54:12.173Z,11.91
2022-11-07T00:56:40.444Z,11.91
2022-11-07T00:59:10.543Z,11.96
2022-11-07T01:01:38.842Z,11.95
2022-11-07T01:04:24.461Z,11.95
2022-11-07T01:06:52.727Z,11.89
2022-11-07T01:09:22.734Z,12.02
2022-11-07T01:11:51.402Z,11.95
2022-11-07T01:14:23.515Z,11.97
2022-11-07T01:16:52.863Z,11.94
2022-11-07T01:19:21.628Z,11.96
2022-11-07T01:21:50.037Z,11.96
2022-11-07T01:24:18.334Z,11.90
2022-11-07T01:26:48.161Z,11.89
2022-11-07T01:29:16.887Z,11.91
2022-11-07T01:31:47.148Z,11.88
2022-11-07T01:34:17.181Z,11.92
2022-11-07T01:36:45.423Z,11.90
2022-11-07T01:39:13.623Z,11.95
2022-11-07T01:41:42.033Z,11.91
2022-11-07T01:44:52.826Z,11.85
2022-11-07T01:47:24.746Z,11.91
2022-11-07T01:49:54.461Z,11.94
2022-11-07T01:52:26.585Z,11.90
2022-11-07T01:55:00.703Z,11.85
2022-11-07T01:57:32.529Z,11.91
2022-11-07T02:00:04.261Z,11.90
2022-11-07T02:02:35.503Z,11.87
2022-11-07T02:05:07.034Z,11.85
2022-11-07T02:07:37.538Z,11.98
2022-11-07T02:10:06.887Z,11.88
2022-11-07T02:12:35.541Z,11.87
2022-11-07T02:15:04.265Z,11.89
2022-11-07T02:17:33.800Z,11.85
2022-11-07T02:20:02.000Z,11.87
2022-11-07T02:22:37.704Z,11.82
2022-11-07T02:25:10.278Z,11.83
2022-11-07T02:27:40.776Z,11.86
2022-11-07T02:30:12.177Z,11.82
2022-11-07T02:32:40.671Z,11.81
2022-11-07T02:35:37.534Z,11.75
2022-11-07T02:38:09.808Z,11.77
2022-11-07T02:40:40.458Z,11.75
2022-11-07T02:43:11.818Z,11.83
2022-11-07T02:45:44.625Z,11.81
2022-11-07T02:48:12.995Z,11.76
2022-11-07T02:50:41.487Z,11.79
2022-11-07T02:53:09.764Z,11.78
2022-11-07T02:55:39.923Z,11.77
2022-11-07T02:58:08.809Z,11.76
2022-11-07T03:00:37.367Z,11.71
2022-11-07T03:03:05.716Z,11.61
2022-11-07T03:05:33.753Z,11.55
2022-11-07T03:08:01.935Z,11.52
2022-11-07T03:10:30.128Z,11.53
2022-11-07T03:12:59.822Z,11.48
2022-11-07T03:15:28.050Z,11.48
2022-11-07T03:17:56.279Z,11.38
2022-11-07T03:20:24.268Z,11.40
2022-11-07T03:22:52.659Z,11.34
2022-11-07T03:25:21.019Z,11.33
2022-11-07T03:27:49.227Z,11.25
2022-11-07T03:30:19.749Z,11.16
2022-11-07T03:32:47.987Z,11.14
2022-11-07T03:35:16.079Z,11.10
2022-11-07T03:37:46.538Z,11.10
2022-11-07T03:40:15.693Z,11.09
2022-11-07T03:42:44.903Z,10.97
2022-11-07T03:45:15.375Z,11.03
2022-11-07T03:47:46.459Z,10.90
2022-11-07T03:50:16.803Z,10.93
2022-11-07T03:52:45.460Z,10.97
2022-11-07T03:55:16.180Z,10.94
2022-11-07T03:57:44.521Z,10.85
2022-11-07T04:00:13.845Z,10.99
2022-11-07T04:02:42.488Z,10.87
2022-11-07T04:05:12.961Z,10.90
2022-11-07T04:07:41.061Z,10.90
2022-11-07T04:10:09.486Z,10.76
2022-11-07T04:12:56.419Z,10.91
2022-11-07T04:15:41.734Z,10.86
2022-11-07T04:18:10.328Z,10.84
2022-11-07T04:20:39.999Z,10.76
2022-11-07T04:23:08.383Z,10.83
2022-11-07T04:25:54.261Z,10.82
2022-11-07T04:28:22.253Z,10.89
2022-11-07T04:30:50.548Z,10.95
2022-11-07T04:33:18.822Z,10.84
2022-11-07T04:35:48.370Z,10.84
2022-11-07T04:38:16.695Z,10.82
2022-11-07T04:40:45.023Z,10.88
2022-11-07T04:43:13.476Z,10.82
2022-11-07T04:45:42.590Z,10.86
2022-11-07T04:48:12.920Z,10.90
2022-11-07T04:50:41.539Z,10.81
2022-11-07T04:53:13.634Z,10.84
2022-11-07T04:55:42.104Z,10.82
2022-11-07T04:58:11.162Z,10.68
2022-11-07T05:00:39.310Z,10.79
2022-11-07T05:03:07.453Z,10.81
2022-11-07T05:05:36.060Z,10.84
2022-11-07T05:08:04.210Z,10.81
2022-11-07T05:10:33.591Z,10.82
2022-11-07T05:13:01.889Z,10.81
2022-11-07T05:15:29.989Z,10.87
2022-11-07T05:17:58.000Z,10.78
2022-11-07T05:20:31.317Z,10.84
2022-11-07T05:23:16.932Z,10.81
2022-11-07T05:25:49.122Z,10.89
2022-11-07T05:28:27.419Z,10.81
2022-11-07T05:31:00.123Z,10.79
2022-11-07T05:33:28.972Z,10.79
2022-11-07T05:35:57.451Z,10.84
2022-11-07T05:38:25.903Z,10.84
2022-11-07T05:40:55.388Z,10.86
2022-11-07T05:43:23.463Z,10.88
2022-11-07T05:45:52.867Z,10.85
2022-11-07T05:48:20.957Z,10.88
2022-11-07T05:50:48.994Z,10.92
2022-11-07T05:53:17.994Z,10.88
2022-11-07T05:55:46.602Z,10.90
2022-11-07T05:58:16.062Z,10.93
2022-11-07T06:00:44.347Z,10.91
2022-11-07T06:03:12.730Z,10.93
2022-11-07T06:05:41.779Z,10.96
2022-11-07T06:08:13.022Z,11.01
2022-11-07T06:10:43.121Z,11.04
2022-11-07T06:13:14.233Z,11.00
2022-11-07T06:15:45.598Z,11.04
2022-11-07T06:18:15.829Z,11.03
2022-11-07T06:20:43.978Z,11.15
2022-11-07T06:23:12.412Z,11.15
2022-11-07T06:25:40.881Z,11.19
2022-11-07T06:28:11.650Z,11.23
2022-11-07T06:30:40.065Z,11.20
2022-11-07T06:33:13.431Z,11.27
2022-11-07T06:35:41.796Z,11.32
2022-11-07T06:38:12.113Z,11.29
2022-11-07T06:40:41.656Z,11.32
2022-11-07T06:43:11.740Z,11.38
2022-11-07T06:45:40.664Z,11.40
2022-11-07T06:48:11.705Z,11.39
2022-11-07T06:50:40.055Z,11.47
2022-11-07T06:53:10.775Z,11.53
2022-11-07T06:55:39.667Z,11.56
2022-11-07T06:58:08.534Z,11.56
2022-11-07T07:00:38.374Z,11.69
2022-11-07T07:03:07.155Z,11.68
2022-11-07T07:05:36.994Z,11.68
2022-11-07T07:08:06.748Z,11.72
2022-11-07T07:10:40.629Z,11.74
2022-11-07T07:13:08.945Z,11.79
2022-11-07T07:15:49.823Z,11.84
2022-11-07T07:18:18.818Z,11.93
2022-11-07T07:20:48.636Z,11.92
2022-11-07T07:23:17.911Z,11.96
2022-11-07T07:25:46.569Z,12.04
2022-11-07T07:28:15.009Z,12.02
2022-11-07T07:30:48.651Z,12.04
2022-11-07T07:33:19.238Z,12.18
2022-11-07T07:35:49.215Z,12.11
2022-11-07T07:38:17.401Z,12.08
2022-11-07T07:40:45.840Z,12.17
2022-11-07T07:43:14.316Z,12.22
2022-11-07T07:45:42.670Z,12.23
2022-11-07T07:48:11.146Z,12.14
2022-11-07T07:50:39.322Z,12.20
2022-11-07T07:53:09.520Z,12.21
2022-11-07T07:55:38.603Z,12.26
2022-11-07T07:58:06.931Z,12.26
2022-11-07T08:00:35.845Z,12.33
2022-11-07T08:03:05.864Z,12.37
2022-11-07T08:05:34.177Z,12.37
2022-11-07T08:08:02.503Z,12.43
2022-11-07T08:10:41.905Z,12.40
2022-11-07T08:13:10.870Z,12.41
2022-11-07T08:15:39.475Z,12.41
2022-11-07T08:18:08.929Z,12.44
2022-11-07T08:20:37.079Z,12.42
2022-11-07T08:23:14.583Z,12.48
2022-11-07T08:25:50.979Z,12.48
2022-11-07T08:28:19.750Z,12.52
2022-11-07T08:30:48.095Z,12.55
2022-11-07T08:33:16.409Z,12.54
2022-11-07T08:35:45.007Z,12.56
2022-11-07T08:38:13.273Z,12.59
2022-11-07T08:40:41.334Z,12.53
2022-11-07T08:43:11.131Z,12.52
2022-11-07T08:45:39.253Z,12.56
2022-11-07T08:48:08.168Z,12.59
2022-11-07T08:50:36.812Z,12.63
2022-11-07T08:53:05.303Z,12.58
2022-11-07T08:55:33.960Z,12.55
2022-11-07T08:58:03.517Z,12.56
2022-11-07T09:00:33.720Z,12.59
2022-11-07T09:03:38.817Z,12.60
2022-11-07T09:05:54.509Z,12.61
2022-11-07T09:08:23.125Z,12.69
2022-11-07T09:10:51.256Z,12.62
2022-11-07T09:13:20.911Z,12.61
2022-11-07T09:15:51.996Z,12.60
2022-11-07T09:18:21.021Z,12.63
2022-11-07T09:20:49.224Z,12.59
2022-11-07T09:23:17.986Z,12.59
2022-11-07T09:25:47.027Z,12.68
2022-11-07T09:28:16.036Z,12.55
2022-11-07T09:30:44.470Z,12.61
2022-11-07T09:33:14.286Z,12.63
2022-11-07T09:35:42.560Z,12.59
2022-11-07T09:38:11.014Z,12.59
2022-11-07T09:40:48.507Z,12.54
2022-11-07T09:43:34.456Z,12.51
2022-11-07T09:46:11.128Z,12.46
2022-11-07T09:48:45.804Z,12.49
2022-11-07T09:51:27.996Z,12.48
2022-11-07T09:54:01.057Z,12.48
2022-11-07T09:56:32.217Z,12.39
2022-11-07T09:59:12.761Z,12.40
2022-11-07T10:01:42.906Z,12.35
2022-11-07T10:04:24.830Z,12.27
2022-11-07T10:06:58.744Z,12.17
2022-11-07T10:09:39.838Z,12.05
2022-11-07T10:12:19.756Z,12.07
2022-11-07T10:15:02.511Z,12.11
2022-11-07T10:17:43.063Z,12.06
2022-11-07T10:20:27.973Z,12.05
2022-11-07T10:23:13.767Z,12.04
2022-11-07T10:25:51.768Z,12.07
2022-11-07T10:28:22.221Z,12.00
2022-11-07T10:30:53.219Z,12.05
2022-11-07T10:33:39.838Z,12.08
2022-11-07T10:36:18.731Z,12.11
2022-11-07T10:38:46.973Z,12.04
2022-11-07T10:41:19.895Z,11.99
2022-11-07T10:43:53.268Z,12.04
2022-11-07T10:46:24.050Z,11.96
2022-11-07T10:48:57.675Z,11.97
2022-11-07T10:51:39.322Z,11.94
2022-11-07T10:54:09.061Z,11.91
2022-11-07T10:56:46.746Z,11.84
2022-11-07T10:59:22.629Z,11.90
2022-11-07T11:01:52.373Z,11.91
2022-11-07T11:04:24.874Z,11.90
2022-11-07T11:07:02.712Z,11.92
2022-11-07T11:09:32.392Z,11.96
2022-11-07T11:12:07.245Z,11.97
2022-11-07T11:14:35.580Z,11.94
2022-11-07T11:17:04.018Z,11.91
2022-11-07T11:19:41.551Z,11.74
2022-11-07T11:22:18.997Z,11.89
2022-11-07T11:24:47.751Z,11.96
2022-11-07T11:27:20.488Z,11.81
2022-11-07T11:29:56.060Z,11.84
2022-11-07T11:32:31.413Z,11.85
2022-11-07T11:35:25.304Z,11.77
2022-11-07T11:37:59.951Z,11.73
2022-11-07T11:40:33.595Z,11.78
2022-11-07T11:43:09.384Z,11.73
2022-11-07T11:45:45.550Z,11.74
2022-11-07T11:48:24.967Z,11.81
2022-11-07T11:50:57.516Z,11.82
2022-11-07T11:53:29.088Z,11.77
2022-11-07T11:56:20.754Z,11.81
2022-11-07T11:58:55.869Z,11.83
2022-11-07T12:01:32.728Z,11.80
2022-11-07T12:04:20.968Z,11.73
2022-11-07T12:06:49.954Z,11.78
2022-11-07T12:09:38.071Z,11.74
2022-11-07T12:12:21.501Z,11.77
2022-11-07T12:15:13.010Z,11.81
2022-11-07T12:17:47.118Z,11.89
2022-11-07T12:20:22.270Z,11.85
2022-11-07T12:23:03.297Z,11.85
2022-11-07T12:25:39.095Z,11.95
2022-11-07T12:28:25.126Z,11.93
2022-11-07T12:31:03.536Z,11.84
2022-11-07T12:33:41.029Z,11.94
2022-11-07T12:36:22.127Z,11.97
2022-11-07T12:39:09.480Z,11.92
2022-11-07T12:41:50.096Z,11.94
2022-11-07T12:44:39.136Z,11.85
2022-11-07T12:47:17.280Z,11.95
2022-11-07T12:50:09.047Z,11.90
2022-11-07T12:52:56.951Z,11.93
2022-11-07T12:55:31.572Z,12.01
2022-11-07T12:58:03.942Z,12.06
2022-11-07T13:00:32.510Z,11.98
2022-11-07T13:03:22.527Z,12.01
2022-11-07T13:06:03.618Z,12.05
2022-11-07T13:08:38.404Z,12.00
2022-11-07T13:11:16.058Z,12.02
2022-11-07T13:14:01.368Z,12.06
2022-11-07T13:16:31.362Z,12.11
2022-11-07T13:19:10.331Z,12.02
2022-11-07T13:21:43.121Z,12.03
2022-11-07T13:24:22.303Z,12.03
2022-11-07T13:26:50.470Z,12.12
2022-11-07T13:29:27.470Z,12.08
2022-11-07T13:32:09.051Z,12.10
2022-11-07T13:34:55.424Z,12.12
2022-11-07T13:37:27.573Z,12.17
2022-11-07T13:40:01.368Z,12.23
2022-11-07T13:42:33.363Z,12.17
2022-11-07T13:45:20.698Z,12.20
2022-11-07T13:47:49.534Z,12.17
2022-11-07T13:50:25.447Z,12.24
2022-11-07T13:52:59.520Z,12.31
2022-11-07T13:55:32.995Z,12.26
2022-11-07T13:58:06.012Z,12.30
2022-11-07T14:00:35.975Z,12.30
2022-11-07T14:03:05.776Z,12.39
2022-11-07T14:05:37.446Z,12.39
2022-11-07T14:08:09.376Z,12.41
2022-11-07T14:10:41.577Z,12.39
2022-11-07T14:13:13.049Z,12.39
2022-11-07T14:15:48.733Z,12.48
2022-11-07T14:18:18.984Z,12.48
2022-11-07T14:20:49.038Z,12.52
2022-11-07T14:23:18.359Z,12.50
2022-11-07T14:25:56.779Z,12.53
2022-11-07T14:28:25.267Z,12.52
2022-11-07T14:30:54.942Z,12.52
2022-11-07T14:33:24.507Z,12.53
2022-11-07T14:35:53.684Z,12.55
2022-11-07T14:38:25.578Z,12.59
2022-11-07T14:40:55.791Z,12.56
2022-11-07T14:43:26.816Z,12.61
2022-11-07T14:46:17.655Z,12.63
2022-11-07T14:48:47.590Z,12.60
2022-11-07T14:51:19.435Z,12.56
2022-11-07T14:53:57.037Z,12.58
2022-11-07T14:56:29.959Z,12.61
2022-11-07T14:58:59.008Z,12.60
2022-11-07T15:01:31.526Z,12.54
2022-11-07T15:04:01.617Z,12.56
2022-11-07T15:06:35.176Z,12.54
2022-11-07T15:09:05.745Z,12.55
2022-11-07T15:11:35.536Z,12.55
2022-11-07T15:14:05.983Z,12.54
2022-11-07T15:16:39.337Z,12.53
2022-11-07T15:19:11.232Z,12.53
2022-11-07T15:21:52.168Z,12.56
2022-11-07T15:24:35.965Z,12.53
2022-11-07T15:27:06.282Z,12.48
2022-11-07T15:29:36.085Z,12.51
2022-11-07T15:32:15.518Z,12.46
2022-11-07T15:37:32.919Z,12.46
2022-11-07T15:40:01.056Z,12.42
2022-11-07T15:42:29.092Z,12.53
2022-11-07T15:44:57.481Z,12.59
2022-11-07T15:47:27.063Z,12.57
2022-11-07T15:49:55.121Z,12.60
2022-11-07T15:52:23.469Z,12.57
2022-11-07T15:54:51.649Z,12.52
2022-11-07T15:57:20.933Z,12.57
2022-11-07T15:59:49.545Z,12.52
2022-11-07T16:02:19.011Z,12.55
2022-11-07T16:04:48.536Z,12.51
2022-11-07T16:07:20.147Z,12.49
2022-11-07T16:09:48.989Z,12.47
2022-11-07T16:12:18.677Z,12.48
2022-11-07T16:14:46.925Z,12.46
2022-11-07T16:17:16.667Z,12.47
2022-11-07T16:19:45.066Z,12.42
2022-11-07T16:22:18.394Z,12.41
2022-11-07T16:24:46.617Z,12.40
2022-11-07T16:27:18.259Z,12.39
2022-11-07T16:29:46.732Z,12.40
2022-11-07T16:32:18.527Z,12.35
2022-11-07T16:34:47.886Z,12.38
2022-11-07T16:37:17.611Z,12.33
2022-11-07T16:39:50.480Z,12.28
2022-11-07T16:42:18.739Z,12.29
2022-11-07T16:44:46.961Z,12.25
2022-11-07T16:47:16.480Z,12.28
2022-11-07T16:49:44.603Z,12.34
2022-11-07T16:52:16.080Z,12.31
2022-11-07T16:54:46.641Z,12.29
2022-11-07T16:57:16.732Z,12.33
2022-11-07T16:59:44.976Z,12.40
2022-11-07T17:02:21.092Z,12.38
2022-11-07T17:04:51.077Z,12.43
2022-11-07T17:07:21.526Z,12.40
2022-11-07T17:09:51.395Z,12.42
2022-11-07T17:12:21.997Z,12.51
2022-11-07T17:14:51.112Z,12.52
2022-11-07T17:17:20.538Z,12.52
2022-11-07T17:19:49.034Z,12.44
2022-11-07T17:22:17.973Z,12.50
2022-11-07T17:24:46.186Z,12.53
2022-11-07T17:27:23.135Z,12.46
2022-11-07T17:29:52.148Z,12.54
2022-11-07T17:32:21.309Z,12.52
2022-11-07T17:35:10.539Z,12.52
2022-11-07T17:37:38.361Z,12.51
2022-11-07T17:40:08.313Z,12.46
2022-11-07T17:42:39.356Z,12.49
2022-11-07T17:45:09.014Z,12.52
2022-11-07T17:47:37.320Z,12.54
2022-11-07T17:50:06.382Z,12.52
2022-11-07T17:52:34.623Z,12.58
2022-11-07T17:55:02.854Z,12.58
2022-11-07T17:57:30.923Z,12.54
2022-11-07T18:00:01.091Z,12.56
2022-11-07T18:02:29.680Z,12.56
2022-11-07T18:04:58.151Z,12.58
2022-11-07T18:07:26.888Z,12.57
2022-11-07T18:09:55.125Z,12.62
2022-11-07T18:12:23.673Z,12.60
2022-11-07T18:14:53.057Z,12.56
2022-11-07T18:17:22.675Z,12.59
2022-11-07T18:19:51.528Z,12.54
2022-11-07T18:22:20.133Z,12.60
2022-11-07T18:24:48.389Z,12.61
2022-11-07T18:27:16.677Z,12.59
2022-11-07T18:29:45.008Z,12.53
2022-11-07T18:32:13.178Z,12.59
2022-11-07T18:34:42.916Z,12.53
2022-11-07T18:37:11.138Z,12.63
2022-11-07T18:39:39.354Z,12.53
2022-11-07T18:42:08.051Z,12.56
2022-11-07T18:44:36.971Z,12.62
2022-11-07T18:47:07.342Z,12.53
2022-11-07T18:49:35.737Z,12.62
2022-11-07T18:52:05.672Z,12.54
2022-11-07T18:54:34.214Z,12.49
2022-11-07T18:57:02.465Z,12.44
2022-11-07T18:59:30.886Z,12.46
2022-11-07T19:02:00.425Z,12.46
2022-11-07T19:04:28.615Z,12.44
2022-11-07T19:06:57.441Z,12.41
2022-11-07T19:09:32.575Z,12.42
2022-11-07T19:12:02.089Z,12.39
2022-11-07T19:14:30.895Z,12.38
2022-11-07T19:16:59.742Z,12.39
2022-11-07T19:19:28.511Z,12.41
2022-11-07T19:21:57.217Z,12.29
2022-11-07T19:24:25.396Z,12.35
2022-11-07T19:26:55.008Z,12.35
2022-11-07T19:29:23.207Z,12.35
2022-11-07T19:31:52.417Z,12.40
2022-11-07T19:34:21.246Z,12.35
2022-11-07T19:36:49.478Z,12.35
2022-11-07T19:39:17.632Z,12.38
2022-11-07T19:41:45.889Z,12.34
2022-11-07T19:44:15.306Z,12.34
2022-11-07T19:46:43.533Z,12.34
2022-11-07T19:49:12.057Z,12.31
2022-11-07T19:51:40.075Z,12.33
2022-11-07T19:54:08.860Z,12.31
2022-11-07T19:56:37.198Z,12.32
2022-11-07T19:59:05.471Z,12.32
2022-11-07T20:01:35.873Z,12.31
2022-11-07T20:04:04.574Z,12.32
2022-11-07T20:06:36.878Z,12.32
2022-11-07T20:09:07.909Z,12.34
2022-11-07T20:11:39.205Z,12.32
2022-11-07T20:14:07.918Z,12.34
2022-11-07T20:16:38.026Z,12.36
2022-11-07T20:19:09.050Z,12.36
2022-11-07T20:21:37.311Z,12.32
2022-11-07T20:24:09.222Z,12.29
2022-11-07T20:26:38.793Z,12.32
2022-11-07T20:29:07.391Z,12.31
2022-11-07T20:31:40.412Z,12.31
2022-11-07T20:34:09.799Z,12.33
2022-11-07T20:36:38.224Z,12.21
2022-11-07T20:39:06.664Z,12.34
2022-11-07T20:41:36.219Z,12.34
2022-11-07T20:44:09.529Z,12.30
2022-11-07T20:46:41.762Z,12.33
2022-11-07T20:49:13.366Z,12.35
2022-11-07T20:51:41.995Z,12.32
2022-11-07T20:54:13.343Z,12.27
2022-11-07T20:56:42.944Z,12.39
2022-11-07T20:59:12.078Z,12.37
2022-11-07T21:01:42.666Z,12.33
2022-11-07T21:04:15.525Z,12.33
2022-11-07T21:06:43.968Z,12.31
2022-11-07T21:09:12.556Z,12.20
2022-11-07T21:11:41.869Z,12.28
2022-11-07T21:14:11.275Z,12.31
2022-11-07T21:16:39.734Z,12.30
2022-11-07T21:19:09.589Z,12.29
2022-11-07T21:21:38.033Z,12.26
2022-11-07T21:24:08.852Z,12.27
2022-11-07T21:26:40.325Z,12.23
2022-11-07T21:29:11.104Z,12.23
2022-11-07T21:31:40.977Z,12.23
2022-11-07T21:34:11.980Z,12.18
2022-11-07T21:36:40.212Z,12.16
2022-11-07T21:39:08.821Z,12.12
2022-11-07T21:41:38.557Z,12.12
2022-11-07T21:44:06.829Z,12.14
2022-11-07T21:46:35.770Z,12.12
2022-11-07T21:49:06.366Z,12.12
2022-11-07T21:51:37.078Z,12.13
2022-11-07T21:54:06.922Z,12.15
2022-11-07T21:56:37.179Z,12.11
2022-11-07T21:59:07.838Z,12.13
2022-11-07T22:01:37.293Z,12.12
2022-11-07T22:04:09.177Z,12.11
2022-11-07T22:06:41.593Z,12.14
2022-11-07T22:09:11.124Z,12.16
2022-11-07T22:11:39.373Z,12.17
2022-11-07T22:14:07.902Z,12.18
2022-11-07T22:16:36.479Z,12.18
2022-11-07T22:19:09.722Z,12.22
2022-11-07T22:21:42.026Z,12.22
2022-11-07T22:24:11.165Z,12.23
2022-11-07T22:26:39.249Z,12.13
2022-11-07T22:29:07.495Z,12.25
2022-11-07T22:31:36.641Z,12.22
2022-11-07T22:34:04.952Z,12.33
2022-11-07T22:36:33.229Z,12.33
2022-11-07T22:39:02.780Z,12.32
2022-11-07T22:41:31.087Z,12.36
2022-11-07T22:43:59.897Z,12.34
2022-11-07T22:46:29.728Z,12.35
2022-11-07T22:48:58.933Z,12.37
2022-11-07T22:51:28.938Z,12.36
2022-11-07T22:53:58.449Z,12.36
2022-11-07T22:56:27.923Z,12.39
2022-11-07T22:58:56.744Z,12.38
2022-11-07T23:01:26.871Z,12.39
2022-11-07T23:03:55.727Z,12.41
2022-11-07T23:06:24.991Z,12.38
2022-11-07T23:08:53.359Z,12.43
2022-11-07T23:14:15.073Z,12.46
2022-11-07T23:16:46.137Z,12.43
2022-11-07T23:19:16.425Z,12.44
2022-11-07T23:21:44.669Z,12.53
2022-11-07T23:24:13.301Z,12.52
2022-11-07T23:26:41.935Z,12.54
2022-11-07T23:29:14.273Z,12.51
2022-11-07T23:31:45.497Z,12.52
2022-11-07T23:34:14.329Z,12.53
2022-11-07T23:36:44.471Z,12.56
2022-11-07T23:39:15.984Z,12.50
2022-11-07T23:41:44.639Z,12.55
2022-11-07T23:44:15.186Z,12.48
2022-11-07T23:47:01.442Z,12.55
2022-11-07T23:49:49.549Z,12.56
2022-11-07T23:52:18.115Z,12.57
2022-11-07T23:55:03.817Z,12.57
2022-11-07T23:57:55.542Z,12.56
